Startpagina
METAR-TAF:

METAR-TAF

Vliegvelden :

Tsjoengking, China

Internationale luchthaven Chongqing Jiangbei

breedte: 29-31N, lengte: 106-29E, hoogte: 351 m

Actueel weer

Dit bericht is 44 minuten geleden gemaakt, om 08:00 UTC
Wind 4 kt uit variabele richting
Temperatuur 31°C
Vochtigheid 40%
Druk 1007 hPa
Zicht 10 km of meer
Verspreide wolken op 2600 ft

METAR: ZUCK 280800Z VRB02MPS 9999 SCT026 31/16 Q1007 NOSIG

Tijdstip: 16:44 (08:44 UTC)

Verwachting

Dit bericht is 5 uur en het 42 minuten geleden gemaakt, om 03:02 UTC
Verwachting geldig van 28 om 06 UTC tot 29 om 06 UTC
Wind 6 kt uit het noordnoordoosten
Zicht: 5000 m
Verspreide wolken op 3000 ft
nevel

TAF: ZUCK 280302Z 2806/2906 02003MPS 5000 BR SCT030 TX31/2807Z TN23/2822Z

Waarnemingen en weersverwachtingen van meer dan 4000 vliegvelden (METAR en TAF).

De beschikbare stations zijn de gele en rode punten op de kaart.

Ga met uw muis naar het station om de naam te zien.

Klik dan om waarnemingen en weersverwachtingen te zien.

kaart wijzigen: klik op de groene knoppen met een zwart kruis om in te zoomen, op de groene knop met een streepje om uit te zoomen of op de groene pijlen voor aangrenzende kaarten.


METAR-TAF: